Time;durP1;ratioP1;P1;durP2;ratioP2;P2;SDS_P1;SDS_P2;PMS_P1;PMS_P2;Temp;Humidity;BMP_temperature;BMP_pressure;BME280_temperature;BME280_humidity;BME280_pressure;Samples;Min_cycle;Max_cycle;Signal;HPM_P1;HPM_P2
2023/12/11 00:01:52;;;;;;;3.53;1.60;;;5.40;99.90;;;;;;4904405;29;20044;-66
2023/12/11 00:04:19;;;;;;;4.82;1.52;;;5.40;99.90;;;;;;4896694;29;20055;-66
2023/12/11 00:06:46;;;;;;;4.65;2.25;;;5.20;99.90;;;;;;4894069;29;20051;-66
2023/12/11 00:09:13;;;;;;;6.65;1.77;;;4.90;99.90;;;;;;4892867;29;20051;-66
2023/12/11 00:11:40;;;;;;;;;;;4.60;99.90;;;;;;4897358;29;20127;-66
2023/12/11 00:14:07;;;;;;;5.35;1.98;;;4.50;99.90;;;;;;4896396;29;20403;-62
2023/12/11 00:16:34;;;;;;;3.65;2.10;;;4.30;99.90;;;;;;4893013;29;20044;-61
2023/12/11 00:19:00;;;;;;;6.65;2.50;;;4.10;99.90;;;;;;4896663;29;20515;-61
2023/12/11 00:21:27;;;;;;;7.53;2.53;;;4.20;99.90;;;;;;4896185;29;20052;-62
2023/12/11 00:23:54;;;;;;;6.35;2.40;;;4.10;99.90;;;;;;4875637;29;20100;-62
2023/12/11 00:26:22;;;;;;;4.38;1.73;;;4.10;99.90;;;;;;4889654;29;20048;-66
2023/12/11 00:28:49;;;;;;;5.22;2.00;;;4.10;99.90;;;;;;4892540;29;20040;-66
2023/12/11 00:31:16;;;;;;;5.65;2.45;;;4.20;99.90;;;;;;4891437;29;20054;-66
2023/12/11 00:33:42;;;;;;;5.00;1.88;;;4.10;99.90;;;;;;4890380;29;20097;-66
2023/12/11 00:36:10;;;;;;;8.05;2.25;;;4.20;99.90;;;;;;4896500;29;20053;-66
2023/12/11 00:38:37;;;;;;;4.65;1.95;;;4.20;99.90;;;;;;4896592;29;20060;-66
2023/12/11 00:41:04;;;;;;;5.68;1.98;;;4.20;99.90;;;;;;4896503;29;20055;-66
2023/12/11 00:43:30;;;;;;;4.70;2.10;;;4.10;99.90;;;;;;4888367;29;20051;-66
2023/12/11 00:46:16;;;;;;;5.28;2.00;;;4.10;99.90;;;;;;4896565;29;20481;-66
2023/12/11 00:48:43;;;;;;;6.28;1.83;;;4.00;99.90;;;;;;4896347;29;20556;-66
2023/12/11 00:51:20;;;;;;;4.93;2.00;;;4.00;99.90;;;;;;4895097;29;20044;-66
2023/12/11 00:53:48;;;;;;;4.60;1.87;;;4.00;99.90;;;;;;4895431;29;20521;-66
2023/12/11 00:56:14;;;;;;;;;;;4.00;99.90;;;;;;4890233;29;20309;-66
2023/12/11 00:58:42;;;;;;;5.50;2.33;;;4.00;99.90;;;;;;4895241;29;19931;-66
2023/12/11 01:01:08;;;;;;;5.30;2.17;;;4.00;99.90;;;;;;4895148;29;20045;-66
2023/12/11 01:03:36;;;;;;;8.48;2.25;;;4.00;99.90;;;;;;4890060;29;20045;-65
2023/12/11 01:06:04;;;;;;;7.68;2.38;;;3.90;99.90;;;;;;4896502;29;20047;-66
2023/12/11 01:08:33;;;;;;;9.15;2.50;;;3.90;99.90;;;;;;4895482;29;20076;-66
2023/12/11 01:11:00;;;;;;;5.88;1.70;;;3.80;99.90;;;;;;4891753;29;20060;-67
2023/12/11 01:13:27;;;;;;;6.50;2.05;;;3.80;99.90;;;;;;4892613;29;20044;-66
2023/12/11 01:15:53;;;;;;;4.25;1.70;;;3.80;99.90;;;;;;4893563;29;20047;-66
2023/12/11 01:18:20;;;;;;;3.47;1.52;;;3.80;99.90;;;;;;4896661;29;20041;-66
2023/12/11 01:20:47;;;;;;;5.15;2.33;;;3.70;99.90;;;;;;4896384;29;20069;-65
2023/12/11 01:23:14;;;;;;;6.38;2.00;;;3.60;99.90;;;;;;4893307;29;20096;-65
2023/12/11 01:25:41;;;;;;;6.53;2.53;;;3.70;99.90;;;;;;4889137;29;20048;-65
2023/12/11 01:28:08;;;;;;;3.53;2.22;;;3.70;99.90;;;;;;4896383;29;20047;-66
2023/12/11 01:30:35;;;;;;;4.25;2.03;;;3.80;99.90;;;;;;4890791;29;20063;-66
2023/12/11 01:33:03;;;;;;;6.15;2.30;;;3.60;99.90;;;;;;4891473;29;20052;-66
2023/12/11 01:35:30;;;;;;;12.18;3.47;;;3.60;99.90;;;;;;4895258;29;20064;-66
2023/12/11 01:37:57;;;;;;;5.40;2.08;;;3.60;99.90;;;;;;4893786;29;20055;-66
2023/12/11 01:40:24;;;;;;;2.35;1.45;;;3.50;99.90;;;;;;4893407;29;20116;-66
2023/12/11 01:42:50;;;;;;;4.20;1.65;;;3.50;99.90;;;;;;4897448;29;20467;-62
2023/12/11 01:45:24;;;;;;;4.10;1.70;;;3.40;99.90;;;;;;4899531;29;20494;-61
2023/12/11 01:47:51;;;;;;;6.53;1.73;;;3.40;99.90;;;;;;4899744;29;20047;-61
2023/12/11 01:50:18;;;;;;;2.97;1.55;;;3.50;99.90;;;;;;4895138;29;20128;-61
2023/12/11 01:52:44;;;;;;;5.35;1.92;;;3.50;99.90;;;;;;4896266;29;20056;-65
2023/12/11 01:55:11;;;;;;;6.60;1.83;;;3.40;99.90;;;;;;4897907;29;20048;-65
2023/12/11 01:57:38;;;;;;;6.90;1.83;;;3.50;99.90;;;;;;4899530;29;20107;-65
2023/12/11 02:00:07;;;;;;;4.80;2.28;;;3.50;99.90;;;;;;4899404;29;20103;-65
2023/12/11 02:02:35;;;;;;;3.40;1.77;;;3.50;99.90;;;;;;4891162;29;20047;-65
2023/12/11 02:05:01;;;;;;;4.60;1.90;;;3.50;99.90;;;;;;4886988;29;20044;-65
2023/12/11 02:07:28;;;;;;;5.65;2.17;;;3.50;99.90;;;;;;4899169;29;20080;-65
2023/12/11 02:09:55;;;;;;;9.90;2.90;;;3.60;99.90;;;;;;4890863;29;20453;-65
2023/12/11 02:12:22;;;;;;;7.45;2.55;;;3.50;99.90;;;;;;4892597;29;20057;-65
2023/12/11 02:14:49;;;;;;;6.45;2.70;;;3.50;99.90;;;;;;4898190;29;20055;-65
2023/12/11 02:17:16;;;;;;;4.93;2.55;;;3.50;99.90;;;;;;4899106;29;20409;-65
2023/12/11 02:19:43;;;;;;;4.10;2.58;;;3.50;99.90;;;;;;4897949;29;20482;-66
2023/12/11 02:22:10;;;;;;;6.55;2.50;;;3.50;99.90;;;;;;4893703;29;20119;-65
2023/12/11 02:24:47;;;;;;;11.10;3.88;;;3.60;99.90;;;;;;4898447;29;20057;-66
2023/12/11 02:27:14;;;;;;;106.37;8.10;;;3.60;99.90;;;;;;4888789;29;20119;-65
2023/12/11 02:29:41;;;;;;;22.88;5.45;;;3.50;99.90;;;;;;4899013;29;20375;-65
2023/12/11 02:32:08;;;;;;;4.40;2.45;;;3.50;99.90;;;;;;4894930;29;20499;-65
2023/12/11 02:34:34;;;;;;;6.78;2.83;;;3.50;99.90;;;;;;4896709;29;20052;-66
2023/12/11 02:37:01;;;;;;;6.28;3.15;;;3.50;99.90;;;;;;4898934;29;20044;-66
2023/12/11 02:39:28;;;;;;;9.55;3.85;;;3.50;99.90;;;;;;4898635;29;20048;-66
2023/12/11 02:41:55;;;;;;;9.00;3.10;;;3.50;99.90;;;;;;4890407;29;20386;-66
2023/12/11 02:44:22;;;;;;;9.02;3.55;;;3.40;99.90;;;;;;4898492;29;20674;-66
2023/12/11 02:46:49;;;;;;;11.07;3.88;;;3.40;99.90;;;;;;4898489;29;20045;-66
2023/12/11 02:49:15;;;;;;;5.22;2.03;;;3.40;99.90;;;;;;4897459;29;20044;-65
2023/12/11 02:51:42;;;;;;;9.63;3.20;;;3.50;99.90;;;;;;4897395;29;20051;-66
2023/12/11 02:54:09;;;;;;;6.28;2.85;;;3.50;99.90;;;;;;4897657;29;20133;-66
2023/12/11 02:56:39;;;;;;;7.93;2.35;;;3.50;99.90;;;;;;4897200;29;20052;-65
2023/12/11 02:59:06;;;;;;;4.57;2.17;;;3.50;99.90;;;;;;4902925;29;20067;-65
2023/12/11 03:01:36;;;;;;;3.90;2.20;;;3.60;99.90;;;;;;4901421;29;20051;-66
2023/12/11 03:04:03;;;;;;;4.10;2.08;;;3.60;99.90;;;;;;4897983;29;20051;-66
2023/12/11 03:06:30;;;;;;;5.82;2.08;;;3.60;99.90;;;;;;4894053;29;20105;-65
2023/12/11 03:08:59;;;;;;;24.55;4.68;;;3.60;99.90;;;;;;4898366;29;20056;-66
2023/12/11 03:11:25;;;;;;;13.15;4.22;;;3.60;99.90;;;;;;4896654;29;20056;-66
2023/12/11 03:13:52;;;;;;;8.35;3.30;;;3.50;99.90;;;;;;4897675;29;20055;-65
2023/12/11 03:16:19;;;;;;;8.48;3.60;;;3.30;99.90;;;;;;4898184;29;20382;-65
2023/12/11 03:18:46;;;;;;;6.88;3.38;;;3.20;99.90;;;;;;4889982;29;20052;-65
2023/12/11 03:21:12;;;;;;;7.85;3.35;;;3.20;99.90;;;;;;4898229;29;20041;-66
2023/12/11 03:23:40;;;;;;;7.88;3.55;;;3.20;99.90;;;;;;4895982;29;20051;-65
2023/12/11 03:26:06;;;;;;;7.78;3.63;;;3.30;99.90;;;;;;4898171;29;20055;-66
2023/12/11 03:28:33;;;;;;;9.65;4.13;;;3.40;99.90;;;;;;4897434;29;20140;-66
2023/12/11 03:31:00;;;;;;;9.07;3.45;;;3.50;99.90;;;;;;4897953;29;20055;-66
2023/12/11 03:33:27;;;;;;;2.80;1.30;;;3.40;99.90;;;;;;4891236;29;20053;-66
2023/12/11 03:35:54;;;;;;;5.85;2.50;;;3.40;99.90;;;;;;4897873;29;20136;-66
2023/12/11 03:38:20;;;;;;;2.28;1.10;;;3.50;99.90;;;;;;4897569;29;20045;-66
2023/12/11 03:40:47;;;;;;;2.90;1.27;;;3.70;99.90;;;;;;4896972;29;20045;-66
2023/12/11 03:43:14;;;;;;;2.13;1.02;;;3.90;99.90;;;;;;4891493;29;20056;-65
2023/12/11 03:45:41;;;;;;;7.68;2.75;;;4.10;99.90;;;;;;4894882;29;20525;-65
2023/12/11 03:48:08;;;;;;;8.38;2.80;;;4.10;99.90;;;;;;4897577;29;20054;-66
2023/12/11 03:50:35;;;;;;;8.15;2.45;;;3.90;99.90;;;;;;4897603;29;20451;-66
2023/12/11 03:53:01;;;;;;;8.50;3.03;;;3.80;99.90;;;;;;4883434;29;20058;-65
2023/12/11 03:55:28;;;;;;;5.40;2.47;;;3.80;99.90;;;;;;4893809;29;20040;-66
2023/12/11 03:57:55;;;;;;;2.88;1.38;;;3.70;99.90;;;;;;4897082;29;20123;-65
2023/12/11 04:00:22;;;;;;;6.32;2.22;;;3.70;99.90;;;;;;4890803;29;20044;-66
2023/12/11 04:02:49;;;;;;;5.20;2.30;;;3.70;99.90;;;;;;4896908;29;20482;-65
2023/12/11 04:05:15;;;;;;;5.75;2.30;;;3.70;99.90;;;;;;4894403;29;20048;-66
2023/12/11 04:07:42;;;;;;;10.88;2.63;;;3.60;99.90;;;;;;4897114;29;20509;-66
2023/12/11 04:10:10;;;;;;;4.28;1.48;;;3.70;99.90;;;;;;4895250;29;20497;-66
2023/12/11 04:12:38;;;;;;;4.63;2.40;;;3.70;99.90;;;;;;4897276;29;20044;-66
2023/12/11 04:15:06;;;;;;;5.65;2.22;;;3.70;99.90;;;;;;4896375;29;20060;-65
2023/12/11 04:17:32;;;;;;;4.78;2.20;;;3.70;99.90;;;;;;4894311;29;20386;-66
2023/12/11 04:20:00;;;;;;;;;;;3.80;99.90;;;;;;4895452;29;20044;-66
2023/12/11 04:22:27;;;;;;;7.50;2.70;;;3.70;99.90;;;;;;4894265;29;19930;-66
2023/12/11 04:24:54;;;;;;;7.00;2.60;;;3.70;99.90;;;;;;4895456;29;20044;-66
2023/12/11 04:27:21;;;;;;;7.15;2.78;;;3.70;99.90;;;;;;4896096;29;20057;-66
2023/12/11 04:29:48;;;;;;;6.57;2.30;;;3.70;99.90;;;;;;4894095;29;20044;-66
2023/12/11 04:32:15;;;;;;;2.80;1.60;;;3.70;99.90;;;;;;4896631;29;20052;-66
2023/12/11 04:34:41;;;;;;;5.07;2.70;;;3.80;99.90;;;;;;4895906;29;20059;-66
2023/12/11 04:37:08;;;;;;;4.45;2.28;;;3.80;99.90;;;;;;4894195;29;20047;-65
2023/12/11 04:39:35;;;;;;;8.75;2.60;;;3.70;99.90;;;;;;4893728;29;20036;-66
2023/12/11 04:42:02;;;;;;;4.78;2.45;;;3.70;99.90;;;;;;4896283;29;20123;-66
2023/12/11 04:44:29;;;;;;;5.07;2.35;;;3.80;99.90;;;;;;4893358;29;20053;-66
2023/12/11 04:46:56;;;;;;;2.75;1.05;;;3.80;99.90;;;;;;4895429;29;20049;-65
2023/12/11 04:49:22;;;;;;;3.33;1.20;;;3.90;99.90;;;;;;4895196;29;20045;-65
2023/12/11 04:51:50;;;;;;;5.38;1.40;;;4.20;99.90;;;;;;4894346;29;20051;-65
2023/12/11 04:54:16;;;;;;;3.42;1.30;;;4.40;99.90;;;;;;4893811;29;20048;-66
2023/12/11 04:56:43;;;;;;;2.85;1.42;;;4.50;99.90;;;;;;4896000;29;20051;-66
2023/12/11 04:59:10;;;;;;;4.47;1.40;;;4.60;99.90;;;;;;4893115;29;20071;-66
2023/12/11 05:01:37;;;;;;;4.05;1.30;;;4.60;99.90;;;;;;4896213;29;20041;-65
2023/12/11 05:04:03;;;;;;;3.85;1.35;;;4.60;99.90;;;;;;4892887;29;20119;-66
2023/12/11 05:06:30;;;;;;;3.83;1.63;;;4.60;99.90;;;;;;4887567;29;20053;-66
2023/12/11 05:08:57;;;;;;;3.45;1.40;;;4.50;99.90;;;;;;4895080;29;20500;-66
2023/12/11 05:11:24;;;;;;;6.65;1.65;;;4.50;99.90;;;;;;4895001;29;20040;-66
2023/12/11 05:13:51;;;;;;;4.10;1.83;;;4.50;99.90;;;;;;4893539;29;20053;-66
2023/12/11 05:16:18;;;;;;;4.13;2.15;;;4.50;99.90;;;;;;4898575;29;20375;-66
2023/12/11 05:18:44;;;;;;;7.15;2.05;;;4.40;99.90;;;;;;4899406;29;20103;-66
2023/12/11 05:21:11;;;;;;;5.57;2.08;;;4.30;99.90;;;;;;4893780;29;20383;-66
2023/12/11 05:23:38;;;;;;;5.95;2.65;;;4.30;99.90;;;;;;4896271;29;20048;-66
2023/12/11 05:26:05;;;;;;;4.70;2.70;;;4.20;99.90;;;;;;4897557;29;20055;-65
2023/12/11 05:28:32;;;;;;;7.63;2.50;;;4.10;99.90;;;;;;4899732;29;20048;-65
2023/12/11 05:30:58;;;;;;;7.45;2.72;;;4.10;99.90;;;;;;4895895;29;20041;-66
2023/12/11 05:33:25;;;;;;;4.25;2.38;;;4.10;99.90;;;;;;4899083;29;20466;-66
2023/12/11 05:35:52;;;;;;;6.63;2.80;;;4.00;99.90;;;;;;4899235;29;20060;-65
2023/12/11 05:38:19;;;;;;;12.02;3.50;;;4.00;99.90;;;;;;4899446;29;20048;-66
2023/12/11 05:40:46;;;;;;;6.40;3.20;;;3.90;99.90;;;;;;4898417;29;20053;-65
2023/12/11 05:43:13;;;;;;;6.80;3.47;;;3.90;99.90;;;;;;4898794;29;20044;-66
2023/12/11 05:45:40;;;;;;;7.85;3.40;;;3.80;99.90;;;;;;4899098;29;20393;-66
2023/12/11 05:48:07;;;;;;;7.20;2.78;;;3.80;99.90;;;;;;4895180;29;20052;-66
2023/12/11 05:50:34;;;;;;;6.85;3.47;;;3.80;99.90;;;;;;4898913;29;20041;-65
2023/12/11 05:53:03;;;;;;;11.38;3.83;;;3.70;99.90;;;;;;4897065;29;20052;-66
2023/12/11 05:55:30;;;;;;;8.75;3.25;;;3.80;99.90;;;;;;4899097;29;20040;-66
2023/12/11 05:57:57;;;;;;;9.48;3.72;;;3.80;99.90;;;;;;4896283;29;20051;-66
2023/12/11 06:00:24;;;;;;;14.25;5.03;;;3.80;99.90;;;;;;4896490;29;20108;-66
2023/12/11 06:02:51;;;;;;;15.95;4.07;;;3.80;99.90;;;;;;4897738;29;20397;-66
2023/12/11 06:05:18;;;;;;;11.18;4.75;;;3.80;99.90;;;;;;4895764;29;20064;-66
2023/12/11 06:07:44;;;;;;;9.43;4.20;;;3.80;99.90;;;;;;4900495;29;20049;-66
2023/12/11 06:10:11;;;;;;;8.55;4.35;;;3.80;99.90;;;;;;4892315;29;20040;-66
2023/12/11 06:12:38;;;;;;;10.57;4.88;;;3.90;99.90;;;;;;4899183;29;20049;-65
2023/12/11 06:15:05;;;;;;;10.85;4.45;;;3.90;99.90;;;;;;4899788;29;20052;-66
2023/12/11 06:17:32;;;;;;;7.68;4.13;;;3.90;99.90;;;;;;4899017;29;20144;-66
2023/12/11 06:19:59;;;;;;;;;;;3.90;99.90;;;;;;4897798;29;20379;-66
2023/12/11 06:22:26;;;;;;;6.07;3.85;;;4.00;99.90;;;;;;4898711;29;20432;-66
2023/12/11 06:24:54;;;;;;;10.98;4.45;;;4.00;99.90;;;;;;4896435;29;20041;-65
2023/12/11 06:27:22;;;;;;;12.27;5.10;;;3.90;99.90;;;;;;4891483;29;20100;-66
2023/12/11 06:29:49;;;;;;;14.30;5.13;;;3.80;99.90;;;;;;4896115;29;20045;-66
2023/12/11 06:32:16;;;;;;;10.57;4.80;;;3.90;99.90;;;;;;4898968;29;20425;-66
2023/12/11 06:34:43;;;;;;;10.85;4.05;;;3.80;99.90;;;;;;4892691;29;20040;-66
2023/12/11 06:37:10;;;;;;;14.43;5.53;;;3.80;99.90;;;;;;4900211;29;20413;-66
2023/12/11 06:39:37;;;;;;;12.60;5.50;;;3.70;99.90;;;;;;4898802;29;20048;-66
2023/12/11 06:42:04;;;;;;;11.02;6.00;;;3.70;99.90;;;;;;4893664;29;20037;-66
2023/12/11 06:44:31;;;;;;;13.40;5.97;;;3.80;99.90;;;;;;4898724;29;20037;-65
2023/12/11 06:46:57;;;;;;;16.73;7.13;;;3.70;99.90;;;;;;4897736;29;20085;-66
2023/12/11 06:49:25;;;;;;;23.48;10.38;;;3.70;99.90;;;;;;4880106;29;20125;-66
2023/12/11 06:51:52;;;;;;;;;;;3.70;99.90;;;;;;4898018;29;20127;-66
2023/12/11 06:54:19;;;;;;;20.30;7.67;;;3.70;99.90;;;;;;4895942;29;19923;-66
2023/12/11 06:56:46;;;;;;;14.85;6.30;;;3.70;99.90;;;;;;4898628;29;20051;-66
2023/12/11 06:59:13;;;;;;;16.92;6.28;;;3.80;99.90;;;;;;4894862;29;20052;-66
2023/12/11 07:01:40;;;;;;;14.95;5.80;;;3.80;99.90;;;;;;4897487;29;20044;-66
2023/12/11 07:04:07;;;;;;;;;;;3.80;99.90;;;;;;4896719;29;20049;-66
2023/12/11 07:06:34;;;;;;;15.40;5.78;;;3.80;99.90;;;;;;4893724;29;20030;-66
2023/12/11 07:09:01;;;;;;;12.38;6.15;;;3.90;99.90;;;;;;4896728;29;20131;-66
2023/12/11 07:11:28;;;;;;;13.30;6.35;;;3.80;99.90;;;;;;4898094;29;20512;-66
2023/12/11 07:13:54;;;;;;;12.70;5.60;;;3.90;99.90;;;;;;4897709;29;20044;-66
2023/12/11 07:16:24;;;;;;;16.13;6.88;;;3.90;99.90;;;;;;4891455;29;20052;-65
2023/12/11 07:18:52;;;;;;;13.88;6.47;;;3.90;99.90;;;;;;4898010;29;20040;-65
2023/12/11 07:21:19;;;;;;;13.35;5.55;;;3.90;99.90;;;;;;4892548;29;20045;-66
2023/12/11 07:23:48;;;;;;;13.93;6.75;;;3.90;99.90;;;;;;4895076;29;20044;-66
2023/12/11 07:26:15;;;;;;;19.30;8.20;;;3.90;99.90;;;;;;4897242;29;20108;-66
2023/12/11 07:28:42;;;;;;;12.25;6.13;;;3.80;99.90;;;;;;4897713;29;20047;-66
2023/12/11 07:31:09;;;;;;;16.25;6.55;;;3.80;99.90;;;;;;4896513;29;20056;-65
2023/12/11 07:33:36;;;;;;;21.63;7.82;;;3.80;99.90;;;;;;4889463;29;20118;-66
2023/12/11 07:36:04;;;;;;;;;;;3.90;99.90;;;;;;4896810;29;20425;-66
2023/12/11 07:38:31;;;;;;;14.50;7.00;;;3.90;99.90;;;;;;4897224;29;20504;-65
2023/12/11 07:40:58;;;;;;;9.93;5.30;;;3.90;99.90;;;;;;4897632;29;20047;-65
2023/12/11 07:43:25;;;;;;;8.40;4.53;;;4.00;99.90;;;;;;4894485;29;20048;-66
2023/12/11 07:45:53;;;;;;;6.78;3.63;;;4.10;99.90;;;;;;4889818;29;20463;-66
2023/12/11 07:48:19;;;;;;;16.13;6.72;;;4.30;99.90;;;;;;4897607;29;20044;-65
2023/12/11 07:50:47;;;;;;;14.90;6.53;;;4.30;99.90;;;;;;4897308;29;20115;-66
2023/12/11 07:53:14;;;;;;;11.90;5.78;;;4.30;99.90;;;;;;4897060;29;20036;-66
2023/12/11 07:55:41;;;;;;;12.55;6.30;;;4.30;99.90;;;;;;4890924;29;20124;-65
2023/12/11 07:58:07;;;;;;;11.35;5.40;;;4.30;99.90;;;;;;4897271;29;20052;-65
2023/12/11 08:00:34;;;;;;;13.52;5.50;;;4.30;99.90;;;;;;4892836;29;20072;-66
2023/12/11 08:03:04;;;;;;;12.57;6.15;;;4.30;99.90;;;;;;4898405;29;20048;-66
2023/12/11 08:05:30;;;;;;;9.13;4.53;;;4.40;99.90;;;;;;4902465;29;20044;-66
2023/12/11 08:07:57;;;;;;;10.60;5.35;;;4.30;99.90;;;;;;4899338;29;20049;-66
2023/12/11 08:10:24;;;;;;;10.30;4.95;;;4.30;99.90;;;;;;4892928;29;20036;-66
2023/12/11 08:12:51;;;;;;;10.55;5.13;;;4.40;99.90;;;;;;4904980;29;20044;-66
2023/12/11 08:15:18;;;;;;;9.63;4.85;;;4.40;99.90;;;;;;4889197;29;20128;-66
2023/12/11 08:17:45;;;;;;;11.35;4.63;;;4.30;99.90;;;;;;4892228;29;20052;-65
2023/12/11 08:20:16;;;;;;;8.93;5.53;;;4.30;99.90;;;;;;4893706;29;21962;-66
2023/12/11 08:22:44;;;;;;;9.38;5.03;;;4.30;99.90;;;;;;4900341;29;20044;-65
2023/12/11 08:25:12;;;;;;;10.75;4.88;;;4.30;99.90;;;;;;4896475;29;20048;-66
2023/12/11 08:27:41;;;;;;;11.10;6.13;;;4.40;99.90;;;;;;4897217;29;20127;-66
2023/12/11 08:30:09;;;;;;;13.35;6.22;;;4.40;99.90;;;;;;4895785;29;20044;-66
2023/12/11 08:32:36;;;;;;;;;;;4.50;99.90;;;;;;4897480;29;20478;-66
2023/12/11 08:35:04;;;;;;;12.65;4.20;;;4.50;99.90;;;;;;4896107;29;19946;-65
2023/12/11 08:37:31;;;;;;;10.73;4.55;;;4.40;99.90;;;;;;4896763;29;20051;-66
2023/12/11 08:39:59;;;;;;;9.18;4.50;;;4.40;99.90;;;;;;4895206;29;20434;-65
2023/12/11 08:42:26;;;;;;;10.85;4.65;;;4.40;99.90;;;;;;4896814;29;20063;-66
2023/12/11 08:44:53;;;;;;;9.05;5.13;;;4.40;99.90;;;;;;4896166;29;20130;-66
2023/12/11 08:47:20;;;;;;;;;;;4.40;99.90;;;;;;4895950;29;20387;-66
2023/12/11 08:49:47;;;;;;;12.02;5.75;;;4.40;99.90;;;;;;4895926;29;19958;-65
2023/12/11 08:52:13;;;;;;;15.23;6.20;;;4.40;99.90;;;;;;4896413;29;20056;-65
2023/12/11 08:54:41;;;;;;;14.20;6.20;;;4.40;99.90;;;;;;4891462;29;20044;-66
2023/12/11 08:57:08;;;;;;;18.10;6.75;;;4.30;99.90;;;;;;4891115;29;20057;-66
2023/12/11 08:59:37;;;;;;;14.05;6.47;;;4.30;99.90;;;;;;4896822;29;20037;-66
2023/12/11 09:02:04;;;;;;;12.20;5.40;;;4.40;99.90;;;;;;4884791;29;20069;-66
2023/12/11 09:04:32;;;;;;;14.25;5.28;;;4.40;99.90;;;;;;4900751;29;20048;-66
2023/12/11 09:06:59;;;;;;;9.50;4.63;;;4.50;99.90;;;;;;4897872;29;20111;-65
2023/12/11 09:09:26;;;;;;;9.38;4.38;;;4.40;99.90;;;;;;4890854;29;20508;-66
2023/12/11 09:11:53;;;;;;;8.05;5.15;;;4.40;99.90;;;;;;4893130;29;20124;-65
2023/12/11 09:14:20;;;;;;;7.82;4.68;;;4.40;99.90;;;;;;4888501;29;20056;-65
2023/12/11 09:16:47;;;;;;;6.45;3.92;;;4.50;99.90;;;;;;4896484;29;20049;-66
2023/12/11 09:19:14;;;;;;;8.43;4.38;;;4.50;99.90;;;;;;4887456;29;20057;-65
2023/12/11 09:21:41;;;;;;;9.63;5.05;;;4.50;99.90;;;;;;4896458;29;20446;-65
2023/12/11 09:24:09;;;;;;;9.15;5.03;;;4.50;99.90;;;;;;4895316;29;20504;-66
2023/12/11 09:26:36;;;;;;;10.85;5.10;;;4.50;99.90;;;;;;4894869;29;20084;-65
2023/12/11 09:29:03;;;;;;;11.13;5.25;;;4.40;99.90;;;;;;4896242;29;20486;-66
2023/12/11 09:31:30;;;;;;;12.23;5.50;;;4.40;99.90;;;;;;4895811;29;20063;-66
2023/12/11 09:33:57;;;;;;;12.93;6.00;;;4.30;99.90;;;;;;4894334;29;20494;-65
2023/12/11 09:36:24;;;;;;;14.95;6.10;;;4.40;99.90;;;;;;4896344;29;20040;-65
2023/12/11 09:38:51;;;;;;;11.85;6.00;;;4.40;99.90;;;;;;4896511;29;20047;-66
2023/12/11 09:41:18;;;;;;;10.05;5.30;;;4.40;99.90;;;;;;4896179;29;20044;-65
2023/12/11 09:43:46;;;;;;;;;;;4.40;99.90;;;;;;4894371;29;20072;-66
2023/12/11 09:46:18;;;;;;;10.35;5.45;;;4.40;99.90;;;;;;4895945;29;20292;-66
2023/12/11 09:48:46;;;;;;;9.50;5.65;;;4.40;99.90;;;;;;4896064;29;20072;-66
2023/12/11 09:51:15;;;;;;;13.80;6.22;;;4.40;99.90;;;;;;4889013;29;20053;-66
2023/12/11 09:53:42;;;;;;;12.60;6.85;;;4.40;99.90;;;;;;4895833;29;20061;-66
2023/12/11 09:56:12;;;;;;;13.98;6.50;;;4.40;99.90;;;;;;4895926;29;20059;-65
2023/12/11 09:58:40;;;;;;;14.55;7.25;;;4.30;99.90;;;;;;4896315;29;20047;-66
2023/12/11 10:01:07;;;;;;;8.85;5.38;;;4.30;99.90;;;;;;4888274;29;20056;-66
2023/12/11 10:03:34;;;;;;;8.93;5.78;;;4.40;99.90;;;;;;4899091;29;20037;-66
2023/12/11 10:06:03;;;;;;;11.50;5.35;;;4.40;99.90;;;;;;4897503;29;20037;-66
2023/12/11 10:08:32;;;;;;;12.43;5.60;;;4.50;99.90;;;;;;4899613;29;20051;-66
2023/12/11 10:11:09;;;;;;;12.90;7.07;;;4.50;99.90;;;;;;4898395;29;20120;-66
2023/12/11 10:13:36;;;;;;;9.98;5.22;;;4.60;99.90;;;;;;4896931;29;20051;-66
2023/12/11 10:16:05;;;;;;;10.63;5.68;;;4.60;99.90;;;;;;4899317;29;20374;-66
2023/12/11 10:18:32;;;;;;;14.70;5.22;;;4.60;99.90;;;;;;4899356;29;20445;-66
2023/12/11 10:20:59;;;;;;;;;;;4.60;99.90;;;;;;4897078;29;20049;-66
2023/12/11 10:23:26;;;;;;;10.57;5.80;;;4.60;99.90;;;;;;4896514;29;19930;-66
2023/12/11 10:26:05;;;;;;;16.00;7.75;;;4.60;99.90;;;;;;4899162;29;20040;-66
2023/12/11 10:28:31;;;;;;;15.93;7.32;;;4.60;99.90;;;;;;4898950;29;20051;-66
2023/12/11 10:31:02;;;;;;;26.48;12.88;;;4.60;99.90;;;;;;4899417;29;20114;-66
2023/12/11 10:33:32;;;;;;;18.15;9.60;;;4.70;99.90;;;;;;4891321;29;20084;-66
2023/12/11 10:36:13;;;;;;;12.82;6.55;;;4.70;99.90;;;;;;4897389;29;20055;-66
2023/12/11 10:38:40;;;;;;;15.05;6.88;;;4.70;99.90;;;;;;4893324;29;20087;-66
2023/12/11 10:41:07;;;;;;;13.80;6.55;;;4.70;99.90;;;;;;4898102;29;20061;-66
2023/12/11 10:43:44;;;;;;;11.90;6.05;;;4.70;99.90;;;;;;4898304;29;20442;-66
2023/12/11 10:46:31;;;;;;;16.00;8.00;;;4.60;99.90;;;;;;4898816;29;20104;-66
2023/12/11 10:49:00;;;;;;;18.52;10.95;;;4.60;99.90;;;;;;4898916;29;20446;-66
2023/12/11 10:51:28;;;;;;;18.30;9.98;;;4.70;99.90;;;;;;4898744;29;20036;-66
2023/12/11 10:53:55;;;;;;;15.18;7.72;;;4.70;99.90;;;;;;4896088;29;20108;-66
2023/12/11 10:56:22;;;;;;;16.42;7.90;;;4.70;99.90;;;;;;4898674;29;20040;-66
2023/12/11 10:58:49;;;;;;;;;;;4.70;99.90;;;;;;4898523;29;20060;-66
2023/12/11 11:01:17;;;;;;;16.77;9.52;;;4.70;99.90;;;;;;4897044;29;19939;-66
2023/12/11 11:03:44;;;;;;;13.48;7.57;;;4.80;99.90;;;;;;4895575;29;20042;-66
2023/12/11 11:06:11;;;;;;;17.15;8.63;;;4.80;99.90;;;;;;4898195;29;20083;-66
2023/12/11 11:08:46;;;;;;;17.55;8.10;;;4.90;99.90;;;;;;4890517;29;20044;-66
2023/12/11 11:11:27;;;;;;;14.02;7.60;;;4.90;99.90;;;;;;4898208;29;20048;-66
2023/12/11 11:14:24;;;;;;;10.45;6.47;;;4.90;99.90;;;;;;4896799;29;20068;-66
2023/12/11 11:16:54;;;;;;;10.68;7.00;;;4.90;99.90;;;;;;4892623;29;20060;-66
2023/12/11 11:19:22;;;;;;;10.85;7.43;;;4.90;99.90;;;;;;4897467;29;20064;-66
2023/12/11 11:22:04;;;;;;;10.60;7.47;;;4.90;99.90;;;;;;4894088;29;20061;-66
2023/12/11 11:24:33;;;;;;;15.32;8.90;;;5.00;99.90;;;;;;4897956;29;20454;-66
2023/12/11 11:27:00;;;;;;;14.02;7.47;;;5.00;99.90;;;;;;4898025;29;20075;-66
2023/12/11 11:29:44;;;;;;;15.63;7.93;;;5.00;99.90;;;;;;4897930;29;20478;-67
2023/12/11 11:32:11;;;;;;;15.75;8.05;;;5.10;99.90;;;;;;4901343;29;20056;-66
2023/12/11 11:34:41;;;;;;;14.98;8.05;;;5.10;99.90;;;;;;4897487;29;20066;-64
2023/12/11 11:37:20;;;;;;;15.20;8.35;;;5.10;99.90;;;;;;4897691;29;20060;-66
2023/12/11 11:40:00;;;;;;;11.20;6.88;;;5.10;99.90;;;;;;4896502;29;20486;-66
2023/12/11 11:42:35;;;;;;;17.05;8.63;;;5.10;99.90;;;;;;4897260;29;20036;-66
2023/12/11 11:45:11;;;;;;;10.20;7.00;;;5.10;99.90;;;;;;4897051;29;20482;-66
2023/12/11 11:47:37;;;;;;;11.52;7.15;;;5.10;99.90;;;;;;4890047;29;20079;-66
2023/12/11 11:50:06;;;;;;;10.05;5.32;;;5.00;99.90;;;;;;4897719;29;20502;-66
2023/12/11 11:52:35;;;;;;;12.85;7.70;;;5.00;99.90;;;;;;4880918;29;20048;-66
2023/12/11 11:55:10;;;;;;;26.23;15.35;;;5.10;99.90;;;;;;4895027;29;20048;-66
2023/12/11 11:57:39;;;;;;;23.20;14.55;;;5.00;99.90;;;;;;4897354;29;20040;-66
2023/12/11 12:00:07;;;;;;;26.38;16.13;;;5.10;99.90;;;;;;4897025;29;20056;-66
2023/12/11 12:02:34;;;;;;;15.90;9.43;;;5.10;99.90;;;;;;4895079;29;20048;-66
2023/12/11 12:05:11;;;;;;;21.83;11.75;;;5.10;99.90;;;;;;4896816;29;20046;-66
2023/12/11 12:07:41;;;;;;;16.65;10.50;;;5.10;99.90;;;;;;4892199;29;20490;-66
2023/12/11 12:10:11;;;;;;;16.42;9.15;;;5.10;99.90;;;;;;4894215;29;20041;-66
2023/12/11 12:12:38;;;;;;;21.13;10.52;;;5.10;99.90;;;;;;4896500;29;20041;-66
2023/12/11 12:15:10;;;;;;;14.70;8.13;;;5.10;99.90;;;;;;4895159;29;20076;-66
2023/12/11 12:17:37;;;;;;;17.17;9.10;;;5.10;99.90;;;;;;4890370;29;20052;-66
2023/12/11 12:20:09;;;;;;;11.80;8.43;;;5.10;99.90;;;;;;4894745;29;20048;-66
2023/12/11 12:22:36;;;;;;;13.18;8.60;;;5.10;99.90;;;;;;4889911;29;20115;-66
2023/12/11 12:25:11;;;;;;;16.92;10.63;;;5.10;99.90;;;;;;4896323;29;20108;-66
2023/12/11 12:27:39;;;;;;;19.88;10.77;;;5.00;99.90;;;;;;4897113;29;20043;-66
2023/12/11 12:30:06;;;;;;;20.58;10.63;;;5.00;99.90;;;;;;4878945;29;20040;-66
2023/12/11 12:32:33;;;;;;;17.20;10.30;;;5.00;99.90;;;;;;4904483;29;20047;-66
2023/12/11 12:35:02;;;;;;;14.52;7.88;;;5.10;99.90;;;;;;4896228;29;20040;-66
2023/12/11 12:37:30;;;;;;;12.18;7.57;;;5.10;99.90;;;;;;4877550;29;20040;-66
2023/12/11 12:39:57;;;;;;;15.80;9.18;;;5.10;99.90;;;;;;4897003;29;20044;-66
2023/12/11 12:42:30;;;;;;;14.55;8.57;;;5.10;99.90;;;;;;4896308;29;20044;-66
2023/12/11 12:44:57;;;;;;;8.05;5.63;;;5.20;99.90;;;;;;4896241;29;20047;-66
2023/12/11 12:47:24;;;;;;;9.38;5.30;;;5.20;99.90;;;;;;4889648;29;20055;-66
2023/12/11 12:49:51;;;;;;;10.10;5.82;;;5.20;99.90;;;;;;4896634;29;20041;-66
2023/12/11 12:52:25;;;;;;;8.43;5.00;;;5.20;99.90;;;;;;4896564;29;20044;-66
2023/12/11 12:54:55;;;;;;;11.50;5.40;;;5.20;99.90;;;;;;4894865;29;20041;-66
2023/12/11 12:57:23;;;;;;;13.18;6.50;;;5.00;99.90;;;;;;4895438;29;20048;-66
2023/12/11 12:59:50;;;;;;;12.65;5.68;;;5.00;99.90;;;;;;4896303;29;20383;-66